createdAt,value
2022-08-09T00:00:06.317Z,34.78
2022-08-09T00:00:11.406Z,34.78
2022-08-09T00:00:21.115Z,34.78
2022-08-09T00:00:31.109Z,34.78
2022-08-09T00:00:44.474Z,34.78
2022-08-09T00:00:51.126Z,34.78
2022-08-09T00:01:01.189Z,34.78
2022-08-09T00:01:16.429Z,34.88
2022-08-09T00:01:21.205Z,34.98
2022-08-09T00:01:43.071Z,34.98
2022-08-09T00:01:59.972Z,34.88
2022-08-09T00:02:04.711Z,34.98
2022-08-09T00:02:14.718Z,34.98
2022-08-09T00:02:24.703Z,34.98
2022-08-09T00:02:35.124Z,34.98
2022-08-09T00:02:49.318Z,34.98
2022-08-09T00:02:54.657Z,34.98
2022-08-09T00:03:18.850Z,35.08
2022-08-09T00:04:34.154Z,35.08
2022-08-09T00:04:39.643Z,35.49
2022-08-09T00:05:00.732Z,35.79
2022-08-09T00:06:18.685Z,35.79
2022-08-09T00:06:27.121Z,35.99
2022-08-09T00:06:32.096Z,36.29
2022-08-09T00:06:44.278Z,36.29
2022-08-09T00:06:51.765Z,36.38
2022-08-09T00:07:01.775Z,36.38
2022-08-09T00:07:11.786Z,36.38
2022-08-09T00:07:21.765Z,36.38
2022-08-09T00:07:31.761Z,36.38
2022-08-09T00:07:49.449Z,36.38
2022-08-09T00:07:57.034Z,36.49
2022-08-09T00:08:10.101Z,36.49
2022-08-09T00:08:32.283Z,36.58
2022-08-09T00:08:37.436Z,36.58
2022-08-09T00:08:42.756Z,36.68
2022-08-09T00:08:53.381Z,36.68
2022-08-09T00:09:02.748Z,36.68
2022-08-09T00:09:12.751Z,36.68
2022-08-09T00:09:22.750Z,36.68
2022-08-09T00:09:32.748Z,36.78
2022-08-09T00:09:42.750Z,36.88
2022-08-09T00:09:52.746Z,36.88
2022-08-09T00:10:02.746Z,36.88
2022-08-09T00:10:21.251Z,36.98
2022-08-09T00:10:26.100Z,36.98
2022-08-09T00:10:32.746Z,36.98
2022-08-09T00:10:42.749Z,36.98
2022-08-09T00:10:52.742Z,37.08
2022-08-09T00:11:05.615Z,37.10
2022-08-09T00:11:25.218Z,37.20
2022-08-09T00:12:02.650Z,37.20
2022-08-09T00:12:08.666Z,37.18
2022-08-09T00:12:22.762Z,37.20
2022-08-09T00:12:34.807Z,37.20
2022-08-09T00:12:39.713Z,37.20
2022-08-09T00:12:52.726Z,37.18
2022-08-09T00:12:58.259Z,37.20
2022-08-09T00:13:16.699Z,37.28
2022-08-09T00:13:21.809Z,37.18
2022-08-09T00:13:28.259Z,37.18
2022-08-09T00:13:38.470Z,37.18
2022-08-09T00:13:48.266Z,37.18
2022-08-09T00:13:58.254Z,37.18
2022-08-09T00:14:08.257Z,37.18
2022-08-09T00:14:36.479Z,37.20
2022-08-09T00:14:43.091Z,37.20
2022-08-09T00:14:55.848Z,37.28
2022-08-09T00:15:06.621Z,37.30
2022-08-09T00:15:13.876Z,37.30
2022-08-09T00:15:26.715Z,37.30
2022-08-09T00:16:02.495Z,37.30
2022-08-09T00:16:07.572Z,37.30
2022-08-09T00:16:17.575Z,37.30
2022-08-09T00:16:38.253Z,37.30
2022-08-09T00:16:43.049Z,37.30
2022-08-09T00:16:50.661Z,37.30
2022-08-09T00:17:00.658Z,37.20
2022-08-09T00:18:04.737Z,37.18
2022-08-09T00:18:14.815Z,37.30
2022-08-09T00:18:19.518Z,37.40
2022-08-09T00:18:44.440Z,37.30
2022-08-09T00:18:49.306Z,37.30
2022-08-09T00:18:59.310Z,37.30
2022-08-09T00:19:10.390Z,37.30
2022-08-09T00:19:19.307Z,37.40
2022-08-09T00:19:29.298Z,37.40
2022-08-09T00:19:39.297Z,37.40
2022-08-09T00:19:49.296Z,37.40
2022-08-09T00:19:59.295Z,37.40
2022-08-09T00:20:09.297Z,37.40
2022-08-09T00:20:19.294Z,37.40
2022-08-09T00:20:31.560Z,37.40
2022-08-09T00:20:42.305Z,37.40
2022-08-09T00:20:54.409Z,37.40
2022-08-09T00:20:59.622Z,37.40
2022-08-09T00:21:09.612Z,37.40
2022-08-09T00:21:19.614Z,37.40
2022-08-09T00:21:29.612Z,37.40
2022-08-09T00:21:56.301Z,37.49
2022-08-09T00:22:01.459Z,37.40
2022-08-09T00:22:08.347Z,37.40
2022-08-09T00:22:18.344Z,37.40
2022-08-09T00:22:33.761Z,37.40
2022-08-09T00:22:39.805Z,37.49
2022-08-09T00:22:48.345Z,37.49
2022-08-09T00:22:58.339Z,37.40
2022-08-09T00:24:00.017Z,37.49
2022-08-09T00:24:04.835Z,37.30
2022-08-09T00:24:14.991Z,37.30
2022-08-09T00:24:24.824Z,37.40
2022-08-09T00:24:34.836Z,37.40
2022-08-09T00:24:44.828Z,37.30
2022-08-09T00:24:54.824Z,37.40
2022-08-09T00:25:08.485Z,37.40
2022-08-09T00:25:14.829Z,37.40
2022-08-09T00:25:32.829Z,37.40
2022-08-09T00:25:37.585Z,37.30
2022-08-09T00:25:51.711Z,37.40
2022-08-09T00:25:57.342Z,37.40
2022-08-09T00:26:07.341Z,37.40
2022-08-09T00:26:17.338Z,37.40
2022-08-09T00:26:32.094Z,37.40
2022-08-09T00:26:37.659Z,37.30
2022-08-09T00:26:47.335Z,37.30
2022-08-09T00:26:57.622Z,37.30
2022-08-09T00:27:07.346Z,37.30
2022-08-09T00:27:17.329Z,37.30
2022-08-09T00:27:27.750Z,37.40
2022-08-09T00:27:42.957Z,37.30
2022-08-09T00:27:48.141Z,37.40
2022-08-09T00:27:58.040Z,37.40
2022-08-09T00:28:08.038Z,37.49
2022-08-09T00:28:18.035Z,37.49
2022-08-09T00:28:28.040Z,37.49
2022-08-09T00:28:38.033Z,37.49
2022-08-09T00:28:52.844Z,37.49
2022-08-09T00:28:58.034Z,37.49
2022-08-09T00:29:12.576Z,37.49
2022-08-09T00:30:25.645Z,37.40
2022-08-09T00:30:31.235Z,37.40
2022-08-09T00:30:35.899Z,37.49
2022-08-09T00:30:45.903Z,37.49
2022-08-09T00:30:55.897Z,37.40
2022-08-09T00:31:46.750Z,37.40
2022-08-09T00:32:04.591Z,37.49
2022-08-09T00:32:09.332Z,37.40
2022-08-09T00:32:26.991Z,37.49
2022-08-09T00:32:31.836Z,37.49
2022-08-09T00:32:39.525Z,37.40
2022-08-09T00:32:49.324Z,37.40
2022-08-09T00:32:59.321Z,37.49
2022-08-09T00:33:09.322Z,37.49
2022-08-09T00:33:19.315Z,37.51
2022-08-09T00:33:49.115Z,37.51
2022-08-09T00:33:56.142Z,37.62
2022-08-09T00:34:00.835Z,37.62
2022-08-09T00:34:11.053Z,37.62
2022-08-09T00:34:20.806Z,37.62
2022-08-09T00:34:32.562Z,37.71
2022-08-09T00:34:40.804Z,37.71
2022-08-09T00:34:56.575Z,37.71
2022-08-09T00:35:03.333Z,37.71
2022-08-09T00:35:13.319Z,37.71
2022-08-09T00:35:23.333Z,37.71
2022-08-09T00:35:42.837Z,37.62
2022-08-09T00:35:48.024Z,37.62
2022-08-09T00:35:53.322Z,37.62
2022-08-09T00:36:03.316Z,37.62
2022-08-09T00:36:13.313Z,37.71
2022-08-09T00:36:27.109Z,37.71
2022-08-09T00:36:34.347Z,37.62
2022-08-09T00:36:43.310Z,37.62
2022-08-09T00:36:53.307Z,37.62
2022-08-09T00:37:03.309Z,37.62
2022-08-09T00:37:13.309Z,37.71
2022-08-09T00:37:24.076Z,37.62
2022-08-09T00:37:33.317Z,37.62
2022-08-09T00:37:43.304Z,37.51
2022-08-09T00:37:53.317Z,37.51
2022-08-09T00:38:03.315Z,37.51
2022-08-09T00:38:13.299Z,37.51
2022-08-09T00:38:23.308Z,37.51
2022-08-09T00:38:33.325Z,37.51
2022-08-09T00:38:43.305Z,37.51
2022-08-09T00:38:53.296Z,37.62
2022-08-09T00:39:04.637Z,37.62
2022-08-09T00:40:09.000Z,37.62
2022-08-09T00:40:19.812Z,37.62
2022-08-09T00:40:31.017Z,37.51
2022-08-09T00:40:35.752Z,37.51
2022-08-09T00:40:52.451Z,37.51
2022-08-09T00:40:58.103Z,37.51
2022-08-09T00:41:05.398Z,37.51
2022-08-09T00:44:16.716Z,37.62
2022-08-09T00:44:31.934Z,37.62
2022-08-09T00:44:37.583Z,37.32
2022-08-09T00:44:47.108Z,37.41
2022-08-09T00:44:56.698Z,37.41
2022-08-09T00:45:15.563Z,37.32
2022-08-09T00:45:20.571Z,37.41
2022-08-09T00:45:26.696Z,37.41
2022-08-09T00:45:36.712Z,37.41
2022-08-09T00:45:50.659Z,37.41
2022-08-09T00:45:58.659Z,37.41
2022-08-09T00:46:06.689Z,37.32
2022-08-09T00:46:44.106Z,37.41
2022-08-09T00:47:04.854Z,37.32
2022-08-09T00:47:10.355Z,37.41
2022-08-09T00:47:20.386Z,37.32
2022-08-09T00:47:35.877Z,37.32
2022-08-09T00:47:45.356Z,37.32
2022-08-09T00:47:50.377Z,37.32
2022-08-09T00:48:00.363Z,37.41
2022-08-09T00:48:15.290Z,37.41
2022-08-09T00:48:23.861Z,37.51
2022-08-09T00:48:30.347Z,37.41
2022-08-09T00:48:40.344Z,37.41
2022-08-09T00:48:56.169Z,37.41
2022-08-09T00:49:01.013Z,37.51
2022-08-09T00:49:10.940Z,37.51
2022-08-09T00:49:20.938Z,37.51
2022-08-09T00:49:31.162Z,37.51
2022-08-09T00:49:40.934Z,37.51
2022-08-09T00:49:54.728Z,37.51
2022-08-09T00:50:01.319Z,37.51
2022-08-09T00:50:14.172Z,37.51
2022-08-09T00:50:20.929Z,37.51
2022-08-09T00:50:30.934Z,37.51
2022-08-09T00:50:40.947Z,37.51
2022-08-09T00:50:52.247Z,37.51
2022-08-09T00:51:00.923Z,37.62
2022-08-09T00:51:14.772Z,37.62
2022-08-09T00:51:20.923Z,37.62
2022-08-09T00:51:33.777Z,37.51
2022-08-09T00:51:42.730Z,37.51
2022-08-09T00:52:05.185Z,37.51
2022-08-09T00:52:17.793Z,37.51
2022-08-09T00:52:22.418Z,37.51
2022-08-09T00:52:33.014Z,37.51
2022-08-09T00:52:42.022Z,37.51
2022-08-09T00:52:52.016Z,37.62
2022-08-09T00:53:10.101Z,37.51
2022-08-09T00:53:15.461Z,37.51
2022-08-09T00:53:24.365Z,37.51
2022-08-09T00:53:32.011Z,37.62
2022-08-09T00:53:42.013Z,37.51
2022-08-09T00:53:52.014Z,37.62
2022-08-09T00:54:02.018Z,37.62
2022-08-09T00:54:12.005Z,37.62
2022-08-09T00:54:22.008Z,37.62
2022-08-09T00:54:36.171Z,37.62
2022-08-09T00:54:42.007Z,37.71
2022-08-09T00:54:52.044Z,37.71
2022-08-09T00:55:02.282Z,37.71
2022-08-09T00:55:16.661Z,37.62
2022-08-09T00:56:04.717Z,37.62
2022-08-09T00:56:14.153Z,37.51
2022-08-09T00:56:18.819Z,37.51
2022-08-09T00:56:28.816Z,37.62
2022-08-09T00:56:38.819Z,37.51
2022-08-09T00:56:48.817Z,37.51
2022-08-09T00:56:58.813Z,37.51
2022-08-09T00:57:10.490Z,37.51
2022-08-09T00:57:24.698Z,37.51
2022-08-09T00:57:39.625Z,37.51
2022-08-09T00:57:44.450Z,37.62
2022-08-09T00:57:54.454Z,37.51
2022-08-09T00:58:05.888Z,37.62
2022-08-09T00:58:14.860Z,37.51
2022-08-09T00:58:30.483Z,37.62
2022-08-09T00:58:36.212Z,37.51
2022-08-09T00:58:48.974Z,37.51
2022-08-09T00:58:56.209Z,37.62
2022-08-09T00:59:06.212Z,37.62
2022-08-09T00:59:20.201Z,37.62
2022-08-09T00:59:52.757Z,37.62
2022-08-09T00:59:57.488Z,37.51
2022-08-09T01:00:21.264Z,37.40
2022-08-09T01:00:27.019Z,37.40
2022-08-09T01:00:31.685Z,37.40
2022-08-09T01:00:41.682Z,37.30
2022-08-09T01:00:51.722Z,37.40
2022-08-09T01:01:03.299Z,37.49
2022-08-09T01:01:16.207Z,37.40
2022-08-09T01:01:22.259Z,37.40
2022-08-09T01:01:32.501Z,37.30
2022-08-09T01:01:49.046Z,37.40
2022-08-09T01:01:53.845Z,37.40
2022-08-09T01:02:03.784Z,37.40
2022-08-09T01:02:13.785Z,37.30
2022-08-09T01:02:23.833Z,37.30
2022-08-09T01:02:34.058Z,37.30
2022-08-09T01:02:43.783Z,37.30
2022-08-09T01:02:53.786Z,37.30
2022-08-09T01:03:03.774Z,37.41
2022-08-09T01:03:14.586Z,37.41
2022-08-09T01:03:23.773Z,37.41
2022-08-09T01:03:33.774Z,37.41
2022-08-09T01:03:46.218Z,37.41
2022-08-09T01:03:54.983Z,37.51
2022-08-09T01:04:03.767Z,37.51
2022-08-09T01:04:13.778Z,37.51
2022-08-09T01:04:23.769Z,37.51
2022-08-09T01:04:33.767Z,37.51
2022-08-09T01:04:44.106Z,37.51
2022-08-09T01:04:53.780Z,37.51
2022-08-09T01:05:03.772Z,37.41
2022-08-09T01:05:14.624Z,37.41
2022-08-09T01:05:51.945Z,37.41
2022-08-09T01:05:59.150Z,37.40
2022-08-09T01:06:17.856Z,37.30
2022-08-09T01:06:25.595Z,37.20
2022-08-09T01:06:58.077Z,37.20
2022-08-09T01:07:03.634Z,37.20
2022-08-09T01:07:13.873Z,37.32
2022-08-09T01:07:37.627Z,37.30
2022-08-09T01:08:04.324Z,37.20
2022-08-09T01:08:08.994Z,37.10
2022-08-09T01:08:18.989Z,37.00
2022-08-09T01:08:31.467Z,37.00
2022-08-09T01:08:38.983Z,37.00
2022-08-09T01:08:53.684Z,37.00
2022-08-09T01:08:59.834Z,36.90
2022-08-09T01:09:09.645Z,36.90
2022-08-09T01:09:18.982Z,36.90
2022-08-09T01:09:36.436Z,36.90
2022-08-09T01:09:41.595Z,37.00
2022-08-09T01:09:48.977Z,36.90
2022-08-09T01:09:58.975Z,36.90
2022-08-09T01:10:08.977Z,36.90
2022-08-09T01:10:18.971Z,36.90
2022-08-09T01:10:29.081Z,36.90
2022-08-09T01:10:38.970Z,37.00
2022-08-09T01:10:51.251Z,37.00
2022-08-09T01:10:58.973Z,37.00
2022-08-09T01:11:08.970Z,37.10
2022-08-09T01:11:18.969Z,37.12
2022-08-09T01:11:28.991Z,37.10
2022-08-09T01:11:38.967Z,37.00
2022-08-09T01:11:55.471Z,37.00
2022-08-09T01:12:00.485Z,37.02
2022-08-09T01:12:08.963Z,37.10
2022-08-09T01:12:18.963Z,37.10
2022-08-09T01:12:28.964Z,37.10
2022-08-09T01:12:38.958Z,37.00
2022-08-09T01:12:48.961Z,36.90
2022-08-09T01:12:58.954Z,36.90
2022-08-09T01:13:08.958Z,36.90
2022-08-09T01:13:18.952Z,36.90
2022-08-09T01:13:31.190Z,36.90
2022-08-09T01:14:00.294Z,36.90
2022-08-09T01:14:06.518Z,37.00
2022-08-09T01:14:16.518Z,37.00
2022-08-09T01:14:26.516Z,36.90
2022-08-09T01:14:36.513Z,36.90
2022-08-09T01:14:46.516Z,37.02
2022-08-09T01:14:56.959Z,36.92
2022-08-09T01:15:16.616Z,36.90
2022-08-09T01:15:21.596Z,37.00
2022-08-09T01:15:26.510Z,36.90
2022-08-09T01:15:40.795Z,36.90
2022-08-09T01:15:52.098Z,36.92
2022-08-09T01:15:57.288Z,36.90
2022-08-09T01:16:06.506Z,36.90
2022-08-09T01:16:16.503Z,36.90
2022-08-09T01:16:26.504Z,37.00
2022-08-09T01:16:36.501Z,37.00
2022-08-09T01:16:47.220Z,37.00
2022-08-09T01:16:56.496Z,37.00
2022-08-09T01:17:08.914Z,36.90
2022-08-09T01:17:16.493Z,36.90
2022-08-09T01:17:26.499Z,36.80
2022-08-09T01:17:36.493Z,36.90
2022-08-09T01:17:46.492Z,36.90
2022-08-09T01:17:56.730Z,36.80
2022-08-09T01:18:06.493Z,36.70
2022-08-09T01:18:16.486Z,36.70
2022-08-09T01:18:34.563Z,36.70
2022-08-09T01:18:39.226Z,36.70
2022-08-09T01:19:04.280Z,36.80
2022-08-09T01:19:17.154Z,36.80
2022-08-09T01:19:57.077Z,36.80
2022-08-09T01:20:06.964Z,36.80
2022-08-09T01:20:11.865Z,36.90
2022-08-09T01:20:21.868Z,36.80
2022-08-09T01:20:31.864Z,36.80
2022-08-09T01:20:41.868Z,36.90
2022-08-09T01:20:51.861Z,36.90
2022-08-09T01:21:01.865Z,36.90
2022-08-09T01:21:11.864Z,36.80
2022-08-09T01:21:21.861Z,36.90
2022-08-09T01:21:40.985Z,36.82
2022-08-09T01:21:51.432Z,36.82
2022-08-09T01:21:58.437Z,36.92
2022-08-09T01:22:12.392Z,36.92
2022-08-09T01:22:21.232Z,36.92
2022-08-09T01:22:28.439Z,36.92
2022-08-09T01:22:38.435Z,36.92
2022-08-09T01:22:52.085Z,37.02
2022-08-09T01:22:59.459Z,37.02
2022-08-09T01:24:01.152Z,37.02
2022-08-09T01:24:08.901Z,37.02
2022-08-09T01:24:13.920Z,37.12
2022-08-09T01:24:23.915Z,37.12
2022-08-09T01:24:33.918Z,37.12
2022-08-09T01:24:44.127Z,37.10
2022-08-09T01:24:55.017Z,37.00
2022-08-09T01:25:03.909Z,37.00
2022-08-09T01:25:13.914Z,37.00
2022-08-09T01:25:23.908Z,37.00
2022-08-09T01:25:37.428Z,37.00
2022-08-09T01:25:48.648Z,36.90
2022-08-09T01:25:55.730Z,36.80
2022-08-09T01:26:05.727Z,36.80
2022-08-09T01:26:15.729Z,36.90
2022-08-09T01:26:26.098Z,37.00
2022-08-09T01:26:35.726Z,37.00
2022-08-09T01:26:46.287Z,37.02
2022-08-09T01:26:57.196Z,37.02
2022-08-09T01:27:05.718Z,37.02
2022-08-09T01:27:15.721Z,37.02
2022-08-09T01:27:25.717Z,37.02
2022-08-09T01:27:35.721Z,37.12
2022-08-09T01:27:45.715Z,37.12
2022-08-09T01:27:57.053Z,37.12
2022-08-09T01:28:05.713Z,37.12
2022-08-09T01:28:15.717Z,37.12
2022-08-09T01:28:26.083Z,37.21
2022-08-09T01:28:35.714Z,37.21
2022-08-09T01:28:45.712Z,37.21
2022-08-09T01:28:55.711Z,37.12
2022-08-09T01:29:05.735Z,37.12
2022-08-09T01:29:15.709Z,37.12
2022-08-09T01:29:28.098Z,37.21
2022-08-09T01:29:41.341Z,37.12
2022-08-09T01:30:00.771Z,37.21
2022-08-09T01:30:05.465Z,37.21
2022-08-09T01:30:28.611Z,37.21
2022-08-09T01:30:51.806Z,37.21
2022-08-09T01:30:58.251Z,37.32
2022-08-09T01:31:03.824Z,37.32
2022-08-09T01:31:23.350Z,37.34
2022-08-09T01:32:36.835Z,37.32
2022-08-09T01:32:45.378Z,37.43
2022-08-09T01:32:51.507Z,37.41
2022-08-09T01:33:01.506Z,37.43
2022-08-09T01:33:11.499Z,37.41
2022-08-09T01:33:21.494Z,37.53
2022-08-09T01:33:31.496Z,37.53
2022-08-09T01:33:41.495Z,37.53
2022-08-09T01:33:51.499Z,37.53
2022-08-09T01:34:01.491Z,37.63
2022-08-09T01:34:11.506Z,37.63
2022-08-09T01:34:21.487Z,37.63
2022-08-09T01:34:31.489Z,37.63
2022-08-09T01:34:41.486Z,37.63
2022-08-09T01:34:51.493Z,37.63
2022-08-09T01:35:07.019Z,37.63
2022-08-09T01:35:37.548Z,37.63
2022-08-09T01:35:43.303Z,37.63
2022-08-09T01:35:52.062Z,37.73
2022-08-09T01:35:59.154Z,37.63
2022-08-09T01:36:08.827Z,37.63
2022-08-09T01:36:18.811Z,37.63
2022-08-09T01:36:28.811Z,37.63
2022-08-09T01:36:39.335Z,37.53
2022-08-09T01:36:48.810Z,37.63
2022-08-09T01:36:58.811Z,37.53
2022-08-09T01:37:08.809Z,37.53
2022-08-09T01:37:21.719Z,37.62
2022-08-09T01:38:08.023Z,37.63
2022-08-09T01:38:15.767Z,37.71
2022-08-09T01:38:20.560Z,37.71
2022-08-09T01:38:30.587Z,37.81
2022-08-09T01:38:40.568Z,37.81
2022-08-09T01:38:50.551Z,37.81
2022-08-09T01:39:00.549Z,37.92
2022-08-09T01:39:10.613Z,37.92
2022-08-09T01:39:20.607Z,37.92
2022-08-09T01:39:30.639Z,37.92
2022-08-09T01:39:40.589Z,37.92
2022-08-09T01:39:50.648Z,37.92
2022-08-09T01:40:00.547Z,38.01
2022-08-09T01:40:10.541Z,38.03
2022-08-09T01:40:28.558Z,37.93
2022-08-09T01:40:33.347Z,38.03
2022-08-09T01:40:43.423Z,38.03
2022-08-09T01:41:04.859Z,38.01
2022-08-09T01:41:10.564Z,37.92
2022-08-09T01:41:15.226Z,38.01
2022-08-09T01:41:25.837Z,38.01
2022-08-09T01:41:35.224Z,38.01
2022-08-09T01:41:53.713Z,37.93
2022-08-09T01:42:11.161Z,38.01
2022-08-09T01:42:15.895Z,38.03
2022-08-09T01:42:25.471Z,38.01
2022-08-09T01:42:35.637Z,37.92
2022-08-09T01:42:45.424Z,38.01
2022-08-09T01:42:55.429Z,37.92
2022-08-09T01:43:05.422Z,37.92
2022-08-09T01:43:15.425Z,37.92
2022-08-09T01:43:25.421Z,37.93
2022-08-09T01:43:50.290Z,37.93
2022-08-09T01:43:56.578Z,38.03
2022-08-09T01:44:01.484Z,38.03
2022-08-09T01:44:11.481Z,38.03
2022-08-09T01:44:21.482Z,38.13
2022-08-09T01:44:31.502Z,38.13
2022-08-09T01:44:41.479Z,38.13
2022-08-09T01:44:51.487Z,38.13
2022-08-09T01:45:01.481Z,38.13
2022-08-09T01:45:11.475Z,38.23
2022-08-09T01:45:21.477Z,38.13
2022-08-09T01:45:31.471Z,38.23
2022-08-09T01:45:44.725Z,38.23
2022-08-09T01:45:52.044Z,38.23
2022-08-09T01:46:01.473Z,38.33
2022-08-09T01:46:11.470Z,38.23
2022-08-09T01:46:25.083Z,38.23
2022-08-09T01:46:32.486Z,38.23
2022-08-09T01:46:41.665Z,38.23
2022-08-09T01:46:53.084Z,38.33
2022-08-09T01:47:01.661Z,38.33
2022-08-09T01:47:11.937Z,38.33
2022-08-09T01:47:21.658Z,38.23
2022-08-09T01:47:31.661Z,38.23
2022-08-09T01:47:44.785Z,38.23
2022-08-09T01:47:51.650Z,38.23
2022-08-09T01:48:01.651Z,38.23
2022-08-09T01:48:11.649Z,38.23
2022-08-09T01:48:29.499Z,38.23
2022-08-09T01:48:34.477Z,38.23
2022-08-09T01:48:42.698Z,38.33
2022-08-09T01:48:52.698Z,38.33
2022-08-09T01:49:10.546Z,38.33
2022-08-09T01:49:16.943Z,38.33
2022-08-09T01:49:24.262Z,38.33
2022-08-09T01:49:39.028Z,38.33
2022-08-09T01:49:48.819Z,38.33
2022-08-09T01:49:55.393Z,38.23
2022-08-09T01:50:06.491Z,38.33
2022-08-09T01:50:13.822Z,38.33
2022-08-09T01:50:30.060Z,38.33
2022-08-09T01:50:41.918Z,38.33
2022-08-09T01:50:48.110Z,38.23
2022-08-09T01:50:56.770Z,38.23
2022-08-09T01:51:06.755Z,38.23
2022-08-09T01:51:22.676Z,38.33
2022-08-09T01:51:27.638Z,38.33
2022-08-09T01:51:36.988Z,38.33
2022-08-09T01:51:54.077Z,38.43
2022-08-09T01:51:59.083Z,38.43
2022-08-09T01:52:12.106Z,38.43
2022-08-09T01:52:19.230Z,38.43
2022-08-09T01:52:29.948Z,38.53
2022-08-09T01:52:41.436Z,38.53
2022-08-09T01:52:49.231Z,38.53
2022-08-09T01:52:59.228Z,38.43
2022-08-09T01:53:19.585Z,38.53
2022-08-09T01:53:28.922Z,38.53
2022-08-09T01:53:45.418Z,38.53
2022-08-09T01:53:53.985Z,38.53
2022-08-09T01:54:04.376Z,38.54
2022-08-09T01:54:13.970Z,38.63
2022-08-09T01:54:23.973Z,38.65
2022-08-09T01:54:33.972Z,38.65
2022-08-09T01:54:43.970Z,38.65
2022-08-09T01:54:53.971Z,38.75
2022-08-09T01:55:03.967Z,38.75
2022-08-09T01:55:13.961Z,38.75
2022-08-09T01:55:23.964Z,38.75
2022-08-09T01:55:33.961Z,38.75
2022-08-09T01:55:43.963Z,38.75
2022-08-09T01:55:53.983Z,38.84
2022-08-09T01:56:03.974Z,38.84
2022-08-09T01:56:13.959Z,38.84
2022-08-09T01:56:23.957Z,38.84
2022-08-09T01:56:33.988Z,38.95
2022-08-09T01:56:43.959Z,38.95
2022-08-09T01:56:56.840Z,38.95
2022-08-09T01:57:04.335Z,39.04
2022-08-09T01:57:14.775Z,39.04
2022-08-09T01:57:23.953Z,39.14
2022-08-09T01:57:39.871Z,39.14
2022-08-09T01:57:46.133Z,39.14
2022-08-09T01:57:57.371Z,39.14
2022-08-09T01:58:04.540Z,39.14
2022-08-09T01:58:14.491Z,39.04
2022-08-09T01:58:24.553Z,38.95
2022-08-09T01:58:34.484Z,39.04
2022-08-09T01:58:44.485Z,38.95
2022-08-09T01:58:54.480Z,38.95
2022-08-09T01:59:04.483Z,38.95
2022-08-09T01:59:16.182Z,39.04
2022-08-09T01:59:24.486Z,38.95
2022-08-09T01:59:50.769Z,39.04
2022-08-09T01:59:59.939Z,39.04
2022-08-09T02:00:09.108Z,39.04
2022-08-09T02:00:39.849Z,39.04
2022-08-09T02:00:46.279Z,39.04
2022-08-09T02:00:55.119Z,39.04
2022-08-09T02:01:04.729Z,39.04
2022-08-09T02:01:18.481Z,39.04
2022-08-09T02:01:58.332Z,39.04
2022-08-09T02:02:05.334Z,39.04
2022-08-09T02:02:10.171Z,39.04
2022-08-09T02:02:20.138Z,39.04
2022-08-09T02:02:31.552Z,39.04
2022-08-09T02:02:40.136Z,39.04
2022-08-09T02:02:50.140Z,39.04
2022-08-09T02:03:00.145Z,39.04
2022-08-09T02:03:11.354Z,39.04
2022-08-09T02:03:20.131Z,39.04
2022-08-09T02:03:30.127Z,38.95
2022-08-09T02:03:40.131Z,39.04
2022-08-09T02:03:50.123Z,39.04
2022-08-09T02:04:00.126Z,39.04
2022-08-09T02:04:10.140Z,39.04
2022-08-09T02:04:20.127Z,39.04
2022-08-09T02:04:30.141Z,39.04
2022-08-09T02:04:40.659Z,39.04
2022-08-09T02:04:50.287Z,39.04
2022-08-09T02:05:04.491Z,39.04
2022-08-09T02:05:15.160Z,39.04
2022-08-09T02:05:20.150Z,39.04
2022-08-09T02:06:04.199Z,39.04
2022-08-09T02:06:11.471Z,39.04
2022-08-09T02:06:16.145Z,39.04
2022-08-09T02:06:26.144Z,39.04
2022-08-09T02:06:38.029Z,39.04
2022-08-09T02:06:54.375Z,39.04
2022-08-09T02:07:03.337Z,39.04
2022-08-09T02:07:17.814Z,39.04
2022-08-09T02:08:58.713Z,39.04
2022-08-09T02:09:04.091Z,39.04
2022-08-09T02:09:08.786Z,38.95
2022-08-09T02:09:18.760Z,38.95
2022-08-09T02:09:42.536Z,38.95
2022-08-09T02:09:47.312Z,38.95
2022-08-09T02:10:04.614Z,39.04
2022-08-09T02:10:09.377Z,39.04
2022-08-09T02:10:19.309Z,39.14
2022-08-09T02:10:34.493Z,39.14
2022-08-09T02:10:40.305Z,39.14
2022-08-09T02:10:51.146Z,39.14
2022-08-09T02:11:00.272Z,39.14
2022-08-09T02:11:16.740Z,39.14
2022-08-09T02:11:22.090Z,39.14
2022-08-09T02:11:42.042Z,39.25
2022-08-09T02:11:47.918Z,39.25
2022-08-09T02:11:52.608Z,39.25
2022-08-09T02:12:02.614Z,39.25
2022-08-09T02:12:13.463Z,39.34
2022-08-09T02:12:22.665Z,39.34
2022-08-09T02:12:32.968Z,39.34
2022-08-09T02:12:42.606Z,39.34
2022-08-09T02:12:52.602Z,39.34
2022-08-09T02:13:02.606Z,39.34
2022-08-09T02:13:12.597Z,39.44
2022-08-09T02:13:26.184Z,39.44
2022-08-09T02:13:41.805Z,39.44
2022-08-09T02:14:06.389Z,39.46
2022-08-09T02:14:15.858Z,39.44
2022-08-09T02:14:29.825Z,39.46
2022-08-09T02:14:34.498Z,39.56
2022-08-09T02:14:44.516Z,39.56
2022-08-09T02:14:54.494Z,39.56
2022-08-09T02:15:06.459Z,39.56
2022-08-09T02:15:16.734Z,39.66
2022-08-09T02:15:24.495Z,39.66
2022-08-09T02:15:49.311Z,39.66
2022-08-09T02:15:54.978Z,39.66
2022-08-09T02:16:01.094Z,39.66
2022-08-09T02:16:11.099Z,39.66
2022-08-09T02:16:21.094Z,39.66
2022-08-09T02:16:59.220Z,39.66
2022-08-09T02:17:59.190Z,39.56
2022-08-09T02:18:10.515Z,39.56
2022-08-09T02:18:15.511Z,39.56
2022-08-09T02:18:25.514Z,39.44
2022-08-09T02:18:35.509Z,39.44
2022-08-09T02:18:47.756Z,39.44
2022-08-09T02:18:55.507Z,39.34
2022-08-09T02:19:05.520Z,39.34
2022-08-09T02:19:15.505Z,39.44
2022-08-09T02:19:38.582Z,39.34
2022-08-09T02:19:43.757Z,39.44
2022-08-09T02:19:48.500Z,39.44
2022-08-09T02:19:58.483Z,39.44
2022-08-09T02:20:08.485Z,39.46
2022-08-09T02:20:26.535Z,39.44
2022-08-09T02:20:37.105Z,39.46
2022-08-09T02:20:43.263Z,39.46
2022-08-09T02:20:53.142Z,39.46
2022-08-09T02:21:03.138Z,39.56
2022-08-09T02:21:21.879Z,39.46
2022-08-09T02:21:27.547Z,39.56
2022-08-09T02:21:34.228Z,39.46
2022-08-09T02:21:43.138Z,39.56
2022-08-09T02:21:55.628Z,39.56
2022-08-09T02:22:03.132Z,39.56
2022-08-09T02:22:13.139Z,39.56
2022-08-09T02:22:27.502Z,39.56
2022-08-09T02:22:39.850Z,39.44
2022-08-09T02:22:45.687Z,39.46
2022-08-09T02:22:54.707Z,39.46
2022-08-09T02:23:04.703Z,39.46
2022-08-09T02:23:16.891Z,39.44
2022-08-09T02:23:24.702Z,39.46
2022-08-09T02:23:40.075Z,39.56
2022-08-09T02:23:47.529Z,39.56
2022-08-09T02:23:56.984Z,39.56
2022-08-09T02:24:06.980Z,39.56
2022-08-09T02:24:26.312Z,39.56
2022-08-09T02:24:31.259Z,39.66
2022-08-09T02:24:37.960Z,39.66
2022-08-09T02:24:52.022Z,39.76
2022-08-09T02:24:57.981Z,39.86
2022-08-09T02:25:07.952Z,39.76
2022-08-09T02:25:17.954Z,39.86
2022-08-09T02:25:27.947Z,39.86
2022-08-09T02:25:42.260Z,39.96
2022-08-09T02:25:56.969Z,39.86
2022-08-09T02:26:02.383Z,39.86
2022-08-09T02:26:25.352Z,39.76
2022-08-09T02:26:32.035Z,39.86
2022-08-09T02:26:37.895Z,39.86
2022-08-09T02:26:47.900Z,39.86
2022-08-09T02:26:58.626Z,39.86
2022-08-09T02:27:07.896Z,39.76
2022-08-09T02:27:18.679Z,39.76
2022-08-09T02:27:57.853Z,39.86
2022-08-09T02:28:05.339Z,39.76
2022-08-09T02:28:17.839Z,39.76
2022-08-09T02:28:24.375Z,39.76
2022-08-09T02:28:34.262Z,39.76
2022-08-09T02:28:44.260Z,39.76
2022-08-09T02:28:54.248Z,39.76
2022-08-09T02:29:04.251Z,39.86
2022-08-09T02:29:14.243Z,39.86
2022-08-09T02:29:24.241Z,39.96
2022-08-09T02:29:34.240Z,39.96
2022-08-09T02:29:44.235Z,40.06
2022-08-09T02:29:54.238Z,40.06
2022-08-09T02:30:04.242Z,40.06
2022-08-09T02:30:14.237Z,40.06
2022-08-09T02:30:25.385Z,40.06
2022-08-09T02:30:34.235Z,40.06
2022-08-09T02:30:44.230Z,40.06
2022-08-09T02:30:54.244Z,40.06
2022-08-09T02:31:05.996Z,40.16
2022-08-09T02:31:14.231Z,40.16
2022-08-09T02:31:24.226Z,40.16
2022-08-09T02:31:36.356Z,40.28
2022-08-09T02:31:44.224Z,40.28
2022-08-09T02:31:54.228Z,40.38
2022-08-09T02:32:04.221Z,40.38
2022-08-09T02:32:14.223Z,40.48
2022-08-09T02:32:24.259Z,40.48
2022-08-09T02:32:34.322Z,40.58
2022-08-09T02:32:44.222Z,40.58
2022-08-09T02:32:54.219Z,40.58
2022-08-09T02:33:08.028Z,40.68
2022-08-09T02:33:18.816Z,40.68
2022-08-09T02:33:37.974Z,40.68
2022-08-09T02:34:06.942Z,40.68
2022-08-09T02:34:40.030Z,40.68
2022-08-09T02:34:51.619Z,40.68
2022-08-09T02:35:00.269Z,40.58
2022-08-09T02:35:17.631Z,40.58
2022-08-09T02:35:32.354Z,40.68
2022-08-09T02:36:06.764Z,40.58